Latest Coastal Weather Observations for Newcastle Nobbys

IDN60701

Issued at 11:52 am EST Saturday 30 July 2016 (issued every 10 minutes, with the page automatically refreshed every 10 minutes)

About coastal observations | Map of coastal stations | Coastal observations for NSW | Marine services | Other Formats
Station Details ID: 061055 Name: NEWCASTLE NOBBYS SIGNAL STATION AWS Lat: -32.92 Lon: 151.80 Height: 33.0 m
Data from the previous 72 hours. | See also: Recent months at Newcastle Nobbys
Date/Time
EST
Temp
°C
Wind Pressure Rain since
9am
mm
Weather Cloud Vis
km
Sea
Height
m
Swell
Dir  Spd
kts
Gust
kts
hPa Trend Height
m
Period
s
Dir
30/11:30am - NW 6 9 - - 0.0 - - - - - - -
30/11:00am - NW 7 10 - - 0.0 - - - - - - -
30/10:30am - NW 9 11 - - 0.0 - - - - - - -
30/10:00am - NW 10 12 - - 0.0 - - - - - - -
30/09:30am - NW 11 15 - - 0.0 - - - - - - -
30/09:00am - WNW 11 15 - - 0.0 - - - - - - -
30/08:30am - WNW 13 17 - - 0.0 - - - - - - -
30/08:00am - WNW 13 17 - - 0.0 - - - - - - -
30/07:30am - WNW 11 14 - - 0.0 - - - - - - -
30/07:00am - WNW 9 13 - - 0.0 - - - - - - -
30/06:30am - WNW 10 13 - - 0.0 - - - - - - -
30/06:00am - WNW 10 14 - - 0.0 - - - - - - -
30/05:30am - WNW 9 12 - - 0.0 - - - - - - -
30/05:00am - WNW 10 14 - - 0.0 - - - - - - -
30/04:30am - WNW 8 10 - - 0.0 - - - - - - -
30/04:00am - WNW 9 12 - - 0.0 - - - - - - -
30/03:30am - WNW 9 11 - - 0.0 - - - - - - -
30/03:00am - WNW 7 10 - - 0.0 - - - - - - -
30/02:30am - WNW 8 12 - - 0.0 - - - - - - -
30/02:00am - WNW 8 10 - - 0.0 - - - - - - -
30/01:30am - WNW 10 12 - - 0.0 - - - - - - -
30/01:00am - WNW 9 13 - - 0.0 - - - - - - -
30/12:30am - NW 8 11 - - 0.0 - - - - - - -
30/12:00am - WNW 9 11 - - 0.0 - - - - - - -
 
Date/Time
EST
Temp
°C
Wind Pressure Rain since
9am
mm
Weather Cloud Vis
km
Sea
Height
m
Swell
Dir  Spd
kts
Gust
kts
hPa Trend Height
m
Period
s
Dir
29/11:30pm - NW 9 12 - - 0.0 - - - - - - -
29/11:00pm - WNW 9 11 - - 0.0 - - - - - - -
29/10:30pm - WNW 11 15 - - 0.0 - - - - - - -
29/10:00pm - WNW 10 12 - - 0.0 - - - - - - -
29/09:30pm - WNW 11 16 - - 0.0 - - - - - - -
29/09:00pm - WNW 11 15 - - 0.0 - - - - - - -
29/08:30pm - WNW 17 21 - - 0.0 - - - - - - -
29/08:00pm - WNW 17 25 - - 0.0 - - - - - - -
29/07:30pm - WNW 12 17 - - 0.0 - - - - - - -
29/07:00pm - WNW 9 13 - - 0.0 - - - - - - -
29/06:30pm - NW 9 13 - - 0.0 - - - - - - -
29/06:00pm - NW 12 17 - - 0.0 - - - - - - -
29/05:30pm - NW 10 15 - - 0.0 - - - - - - -
29/05:00pm - WNW 9 13 - - 0.0 - - - - - - -
29/04:30pm - NW 13 17 - - 0.0 - - - - - - -
29/04:00pm - NW 16 19 - - 0.0 - - - - - - -
29/03:30pm - WNW 15 20 - - 0.0 - - - - - - -
29/03:00pm - NW 14 18 - - 0.0 - - - - - - -
29/02:30pm - WNW 17 24 - - 0.0 - - - - - - -
29/02:00pm - NW 18 23 - - 0.0 - - - - - - -
29/01:30pm - NW 18 26 - - 0.0 - - - - - - -
29/01:00pm - NW 20 28 - - 0.0 - - - - - - -
29/12:30pm - NW 18 23 - - 0.0 - - - - - - -
29/12:00pm - NW 18 25 - - 0.0 - - - - - - -
29/11:30am - NW 16 21 - - 0.0 - - - - - - -
29/11:00am - NW 18 24 - - 0.0 - - - - - - -
29/10:30am - NW 19 26 - - 0.0 - - - - - - -
29/10:00am - NW 15 19 - - 0.0 - - - - - - -
29/09:30am - NW 15 19 - - 0.0 - - - - - - -
29/09:00am - WNW 13 20 - - 0.0 - - - - - - -
29/08:30am - WNW 16 20 - - 0.0 - - - - - - -
29/08:00am - WNW 12 17 - - 0.0 - - - - - - -
29/07:30am - WNW 11 15 - - 0.0 - - - - - - -
29/07:00am - WNW 13 17 - - 0.0 - - - - - - -
29/06:30am - WNW 15 18 - - 0.0 - - - - - - -
29/06:00am - WNW 11 16 - - 0.0 - - - - - - -
29/05:30am - WNW 13 17 - - 0.0 - - - - - - -
29/05:00am - NW 13 16 - - 0.0 - - - - - - -
29/04:30am 8.2 NW 13 17 - - 0.0 - - - - - - -
29/04:00am 8.3 NW 13 17 - - 0.0 - - - - - - -
29/03:30am 8.7 NW 12 15 - - 0.0 - - - - - - -
29/03:00am 8.7 WNW 11 14 - - 0.0 - - - - - - -
29/02:30am 9.0 WNW 11 13 - - 0.0 - - - - - - -
29/02:00am 9.5 NW 8 13 - - 0.0 - - - - - - -
29/01:30am 9.8 WNW 7 9 - - 0.0 - - - - - - -
29/01:00am 10.2 WNW 8 10 - - 0.0 - - - - - - -
29/12:30am 10.3 WNW 5 6 - - 0.0 - - - - - - -
29/12:00am 10.9 NW 7 9 - - 0.0 - - - - - - -
 
Date/Time
EST
Temp
°C
Wind Pressure Rain since
9am
mm
Weather Cloud Vis
km
Sea
Height
m
Swell
Dir  Spd
kts
Gust
kts
hPa Trend Height
m
Period
s
Dir
28/11:30pm 11.4 NW 7 9 - - 0.0 - - - - - - -
28/11:00pm 11.6 WNW 5 7 - - 0.0 - - - - - - -
28/10:30pm 12.1 NW 6 9 - - 0.0 - - - - - - -
28/10:00pm 12.6 WNW 9 12 - - 0.0 - - - - - - -
28/09:30pm 13.3 WNW 9 11 - - 0.0 - - - - - - -
28/09:00pm 13.8 WNW 13 16 - - 0.0 - - - - - - -
28/08:30pm 14.0 WNW 11 16 - - 0.0 - - - - - - -
28/08:00pm 14.2 NW 11 14 - - 0.0 - - - - - - -
28/07:30pm 14.7 NW 8 11 - - 0.0 - - - - - - -
28/07:00pm 15.0 WNW 10 12 - - 0.0 - - - - - - -
28/06:30pm 15.1 NW 10 13 - - 0.0 - - - - - - -
28/06:00pm 15.3 NW 11 14 - - 0.0 - - - - - - -
28/05:30pm 15.7 NW 9 13 - - 0.0 - - - - - - -
28/05:00pm 16.5 NW 13 17 - - 0.0 - - - - - - -
28/04:30pm 17.3 NW 13 16 - - 0.0 - - - - - - -
28/04:00pm 17.7 NW 14 18 - - 0.0 - - - - - - -
28/03:30pm 17.8 NW 14 18 - - 0.0 - - - - - - -
28/03:00pm 17.9 WNW 12 16 - - 0.0 - - - - - - -
28/02:30pm 18.4 NW 12 16 - - 0.0 - - - - - - -
28/02:00pm 17.9 WNW 10 13 - - 0.0 - - - - - - -
28/01:30pm 18.5 W 9 12 - - 0.0 - - - - - - -
28/01:00pm 17.7 WNW 8 13 - - 0.0 - - - - - - -
28/12:30pm 17.5 WNW 9 13 - - 0.0 - - - - - - -
28/12:00pm 17.1 WNW 8 12 - - 0.0 - - - - - - -
28/11:30am 16.6 NW 9 13 - - 0.0 - - - - - - -
28/11:00am 15.7 NW 12 15 - - 0.0 - - - - - - -
28/10:30am 15.1 WNW 11 14 - - 0.0 - - - - - - -
28/10:00am 13.9 WNW 12 15 - - 0.0 - - - - - - -
28/09:30am 12.8 NW 14 18 - - 0.0 - - - - - - -
28/09:00am 12.0 NW 14 20 - - 0.0 - - - - - - -
28/08:30am 11.4 NW 11 15 - - 0.0 - - - - - - -
28/08:00am 10.3 NW 11 14 - - 0.0 - - - - - - -
28/07:30am 9.8 NW 12 15 - - 0.0 - - - - - - -
28/07:00am 9.1 NW 11 14 - - 0.0 - - - - - - -
28/06:30am 9.2 NW 12 15 - - 0.0 - - - - - - -
28/06:00am 9.3 NW 12 14 - - 0.0 - - - - - - -
28/05:30am 9.3 NW 10 13 - - 0.0 - - - - - - -
28/05:00am 9.3 NW 9 13 - - 0.0 - - - - - - -
28/04:30am 9.3 NW 7 8 - - 0.0 - - - - - - -
28/04:00am 9.3 WNW 10 13 - - 0.0 - - - - - - -
28/03:30am 9.7 NW 9 12 - - 0.0 - - - - - - -
28/03:00am 9.8 WNW 10 12 - - 0.0 - - - - - - -
28/02:30am 9.9 WNW 10 13 - - 0.0 - - - - - - -
28/02:00am 10.1 WNW 9 12 - - 0.0 - - - - - - -
28/01:30am 10.5 WNW 10 13 - - 0.0 - - - - - - -
28/01:00am 10.9 WNW 10 13 - - 0.0 - - - - - - -
28/12:30am 11.3 WNW 12 15 - - 0.0 - - - - - - -
28/12:00am 11.8 WNW 11 15 - - 0.0 - - - - - - -
 
Date/Time
EST
Temp
°C
Wind Pressure Rain since
9am
mm
Weather Cloud Vis
km
Sea
Height
m
Swell
Dir  Spd
kts
Gust
kts
hPa Trend Height
m
Period
s
Dir
27/11:30pm 11.7 NW 10 15 - - 0.0 - - - - - - -
27/11:00pm 11.8 NW 7 10 - - 0.0 - - - - - - -
27/10:30pm 12.5 WNW 8 9 - - 0.0 - - - - - - -
27/10:00pm 13.0 WNW 9 11 - - 0.0 - - - - - - -
27/09:30pm 13.4 WNW 10 17 - - 0.0 - - - - - - -
27/09:00pm 13.3 WNW 7 9 - - 0.0 - - - - - - -
27/08:30pm 14.1 WNW 9 11 - - 0.0 - - - - - - -
27/08:00pm 14.7 W 16 21 - - 0.0 - - - - - - -
27/07:30pm 14.5 WNW 9 13 - - 0.0 - - - - - - -
27/07:00pm 14.9 WNW 8 10 - - 0.0 - - - - - - -
27/06:30pm 15.4 W 10 13 - - 0.0 - - - - - - -
27/06:00pm 15.9 W 13 19 - - 0.0 - - - - - - -
27/05:30pm 16.3 W 16 22 - - 0.0 - - - - - - -
27/05:00pm 17.1 W 16 24 - - 0.0 - - - - - - -
27/04:30pm 18.0 W 20 28 - - 0.0 - - - - - - -
27/04:00pm 18.4 W 20 27 - - 0.0 - - - - - - -
27/03:30pm 18.7 W 21 29 - - 0.0 - - - - - - -
27/03:26pm 18.9 W 18 29 - - 0.0 - - - - - - -
27/03:18pm 19.1 WNW 21 31 - - 0.0 - - - - - - -
27/03:00pm 18.9 W 24 34 - - 0.0 - - - - - - -
27/02:51pm 19.0 WNW 22 32 - - 0.0 - - - - - - -
27/02:30pm 18.2 W 23 31 - - 0.0 - - - - - - -
27/02:00pm 18.1 W 19 27 - - 0.0 - - - - - - -
27/01:44pm 18.8 WNW 20 31 - - 0.0 - - - - - - -
27/01:30pm 18.6 WNW 24 31 - - 0.0 - - - - - - -
27/01:08pm 17.9 WNW 23 33 - - 0.0 - - - - - - -
27/01:00pm 18.4 WNW 25 33 - - 0.0 - - - - - - -
27/12:30pm 18.3 WNW 25 41 - - 0.0 - - - - - - -
27/12:18pm 18.1 WNW 24 35 - - 0.0 - - - - - - -
27/12:00pm 17.5 WNW 26 34 - - 0.0 - - - - - - -

Other Formats:

Comma delimited format used in spreadsheet applications
http://www.bom.gov.au/fwo/IDN60701/IDN60701.94774.axf

JavaScript Object Notation format (JSON) in row-major order
http://www.bom.gov.au/fwo/IDN60701/IDN60701.94774.json